Time;durP1;ratioP1;P1;durP2;ratioP2;P2;SDS_P1;SDS_P2;PMS_P1;PMS_P2;Temp;Humidity;BMP_temperature;BMP_pressure;BME280_temperature;BME280_humidity;BME280_pressure;Samples;Min_cycle;Max_cycle;Signal;HPM_P1;HPM_P2
2024/03/06 00:03:03;;;;;;;22.55;16.05;;;;;;;2.71;100.00;149350.44;10668559;27;20555;-72
2024/03/06 00:08:05;;;;;;;24.90;16.33;;;;;;;2.61;100.00;149323.47;10668794;27;20074;-72
2024/03/06 00:13:07;;;;;;;24.55;16.95;;;;;;;2.74;100.00;149356.81;10668280;27;20034;-72
2024/03/06 00:18:10;;;;;;;23.38;15.00;;;;;;;2.76;100.00;149363.25;10668068;27;20049;-72
2024/03/06 00:23:11;;;;;;;21.88;14.60;;;;;;;2.55;100.00;149309.38;10668775;27;20047;-72
2024/03/06 00:28:13;;;;;;;22.77;14.20;;;;;;;2.41;100.00;149273.47;10668275;27;20049;-73
2024/03/06 00:33:15;;;;;;;20.40;15.63;;;;;;;2.50;100.00;149296.53;10667573;27;20027;-72
2024/03/06 00:38:17;;;;;;;25.15;16.13;;;;;;;2.83;100.00;149378.66;10649157;27;20495;-73
2024/03/06 00:43:20;;;;;;;21.17;14.55;;;;;;;2.66;100.00;149337.63;10667158;27;20066;-71
2024/03/06 00:48:21;;;;;;;23.35;15.18;;;;;;;2.44;100.00;149282.44;10649361;27;20047;-73
2024/03/06 00:53:24;;;;;;;20.88;15.95;;;;;;;2.42;100.00;149276.00;10667922;27;20053;-72
2024/03/06 00:58:26;;;;;;;18.98;14.13;;;;;;;2.53;100.00;149305.53;10668622;27;20118;-72
2024/03/06 01:03:28;;;;;;;16.73;14.35;;;;;;;2.80;100.00;149372.25;10672136;27;20114;-73
2024/03/06 01:08:31;;;;;;;17.73;14.90;;;;;;;2.90;100.00;149397.91;10675820;27;20095;-73
2024/03/06 01:13:33;;;;;;;22.67;14.82;;;;;;;2.78;100.00;149367.09;10675058;27;20035;-71
2024/03/06 01:18:36;;;;;;;22.63;14.45;;;;;;;2.53;100.00;149305.53;10655853;27;20069;-72
2024/03/06 01:23:37;;;;;;;18.23;15.02;;;;;;;2.33;100.00;149252.94;10675424;27;20105;-73
2024/03/06 01:28:39;;;;;;;25.55;13.55;;;;;;;2.23;100.00;149229.84;10674797;27;20053;-73
2024/03/06 01:33:41;;;;;;;16.00;13.88;;;;;;;2.12;100.00;149200.34;10674070;27;20046;-72
2024/03/06 01:38:45;;;;;;;19.90;14.70;;;;;;;2.04;100.00;149181.13;10674142;27;20047;-72
2024/03/06 01:43:47;;;;;;;19.88;15.38;;;;;;;2.15;100.00;149208.03;10673904;27;20100;-72
2024/03/06 01:48:49;;;;;;;20.38;15.15;;;;;;;1.99;100.00;149169.59;10673816;27;20069;-72
2024/03/06 01:53:51;;;;;;;19.80;14.13;;;;;;;1.73;100.00;149102.91;10673462;27;20031;-73
2024/03/06 01:58:54;;;;;;;18.88;14.18;;;;;;;1.89;100.00;149142.63;10673356;27;20073;-72
2024/03/06 02:03:59;;;;;;;21.83;15.18;;;;;;;1.76;100.00;149111.84;10655293;27;20043;-72
2024/03/06 02:09:03;;;;;;;18.85;14.02;;;;;;;1.56;100.00;149059.31;10673362;27;20038;-72
2024/03/06 02:14:06;;;;;;;22.77;14.70;;;;;;;1.60;100.00;149069.59;10672740;27;20042;-72
2024/03/06 02:19:08;;;;;;;25.48;16.05;;;;;;;1.61;100.00;149072.13;10653691;27;20064;-72
2024/03/06 02:24:11;;;;;;;26.45;15.93;;;;;;;1.87;100.00;149138.81;10672482;27;20043;-72
2024/03/06 02:29:14;;;;;;;17.35;14.85;;;;;;;1.56;100.00;149059.31;10672157;27;20063;-72
2024/03/06 02:34:16;;;;;;;17.42;13.07;;;;;;;1.38;100.00;149015.75;10673159;27;20060;-72
2024/03/06 02:39:18;;;;;;;21.65;13.73;;;;;;;1.23;100.00;148977.25;10672422;27;20042;-72
2024/03/06 02:44:21;;;;;;;21.70;14.68;;;;;;;1.47;100.00;149037.53;10671637;27;20451;-73
2024/03/06 02:49:23;;;;;;;19.55;14.70;;;;;;;1.53;100.00;149052.91;10671999;27;20062;-72
2024/03/06 02:54:25;;;;;;;23.95;16.27;;;;;;;1.26;100.00;148984.97;10671909;27;20035;-74
2024/03/06 02:59:27;;;;;;;17.70;14.23;;;;;;;1.08;100.00;148938.84;10672709;27;20074;-73
2024/03/06 03:04:28;;;;;;;22.20;14.30;;;;;;;0.98;100.00;148915.78;10652398;27;20083;-71
2024/03/06 03:09:30;;;;;;;17.92;14.23;;;;;;;0.87;100.00;148886.31;10670462;27;20049;-73
2024/03/06 03:14:32;;;;;;;19.52;15.50;;;;;;;1.18;100.00;148964.47;10670227;27;20048;-72
2024/03/06 03:19:34;;;;;;;15.90;14.32;;;;;;;0.83;100.00;148877.31;10669743;27;20070;-72
2024/03/06 03:24:39;;;;;;;22.50;14.68;;;;;;;1.13;100.00;148952.94;10669276;27;20038;-73
2024/03/06 03:29:41;;;;;;;21.65;15.50;;;;;;;1.25;100.00;148983.69;10652120;27;20087;-72
2024/03/06 03:34:43;;;;;;;21.05;16.08;;;;;;;0.88;100.00;148888.84;10669648;27;20080;-72
2024/03/06 03:39:45;;;;;;;25.02;16.90;;;;;;;1.17;100.00;148961.91;10651306;27;20053;-73
2024/03/06 03:44:46;;;;;;;19.85;15.20;;;;;;;0.98;100.00;148915.78;10669250;27;20473;-72
2024/03/06 03:49:48;;;;;;;20.63;14.90;;;;;;;0.83;100.00;148876.06;10669587;27;20081;-72
2024/03/06 03:55:08;;;;;;;23.10;15.90;;;;;;;0.75;100.00;148856.81;10668804;27;20035;-72
2024/03/06 04:00:11;;;;;;;23.33;15.15;;;;;;;0.66;100.00;148835.03;10669360;27;20046;-72
2024/03/06 04:05:14;;;;;;;18.67;15.85;;;;;;;0.52;100.00;148797.91;10668770;27;20034;-73
2024/03/06 04:10:16;;;;;;;23.48;15.35;;;;;;;0.76;100.00;148859.41;10669540;27;20043;-72
2024/03/06 04:15:18;;;;;;;29.10;16.30;;;;;;;0.85;100.00;148881.19;10650094;27;20042;-72
2024/03/06 04:20:20;;;;;;;24.65;16.27;;;;;;;1.05;100.00;148932.41;10668530;27;20038;-72
2024/03/06 04:25:23;;;;;;;23.30;15.95;;;;;;;1.21;100.00;148972.16;10668760;27;20064;-73
2024/03/06 04:30:25;;;;;;;23.23;16.92;;;;;;;1.22;100.00;148976.00;10668322;27;20046;-72
2024/03/06 04:35:26;;;;;;;29.60;16.98;;;;;;;1.15;100.00;148956.75;10669545;27;20067;-72
2024/03/06 04:40:28;;;;;;;17.40;15.63;;;;;;;0.85;100.00;148882.47;10677022;27;20047;-73
2024/03/06 04:45:30;;;;;;;25.33;16.63;;;;;;;0.75;100.00;148858.16;10676471;27;20118;-72
2024/03/06 04:50:32;;;;;;;21.88;15.32;;;;;;;0.78;100.00;148863.25;10676579;27;20050;-72
2024/03/06 04:55:36;;;;;;;36.20;19.58;;;;;;;0.95;100.00;148908.09;10675856;27;20066;-73
2024/03/06 05:00:38;;;;;;;25.58;17.02;;;;;;;0.92;100.00;148900.38;10658888;27;20035;-72
2024/03/06 05:05:40;;;;;;;19.63;16.30;;;;;;;0.89;100.00;148891.47;10657461;27;20039;-73
2024/03/06 05:11:00;;;;;;;20.95;16.25;;;;;;;0.86;100.00;148885.03;10676505;27;20038;-73
2024/03/06 05:16:19;;;;;;;31.02;15.90;;;;;;;0.87;100.00;148886.31;10676644;27;20402;-71
2024/03/06 05:21:39;;;;;;;24.80;17.13;;;;;;;0.94;100.00;148905.53;10675319;27;20034;-72
2024/03/06 05:26:58;;;;;;;24.77;16.73;;;;;;;0.73;100.00;148853.00;10660239;27;20038;-72
2024/03/06 05:32:17;;;;;;;23.13;15.77;;;;;;;0.55;100.00;148806.91;10674751;27;20026;-72
2024/03/06 05:37:37;;;;;;;31.58;18.00;;;;;;;0.41;100.00;148771.03;10642784;27;20038;-72
2024/03/06 05:42:57;;;;;;;29.20;18.00;;;;;;;0.44;100.00;148780.00;10656992;27;20383;-72
2024/03/06 05:48:16;;;;;;;24.25;16.23;;;;;;;0.67;100.00;148836.38;10674345;27;20037;-72
2024/03/06 05:53:39;;;;;;;23.10;15.13;;;;;;;0.56;100.00;148809.44;10655677;27;20513;-72
2024/03/06 05:58:58;;;;;;;21.48;16.40;;;;;;;0.45;100.00;148781.28;10674421;27;20031;-72
2024/03/06 06:04:01;;;;;;;27.25;17.02;;;;;;;0.52;100.00;148799.19;10673520;27;20455;-73
2024/03/06 06:09:12;;;;;;;;;;;;;;;0.55;100.00;148806.91;10673443;27;20410;-72
2024/03/06 06:14:14;;;;;;;26.27;17.13;;;;;;;0.57;100.00;148812.00;10674027;27;19919;-72
2024/03/06 06:19:16;;;;;;;30.13;18.90;;;;;;;1.05;100.00;148931.16;10654527;27;20043;-71
2024/03/06 06:24:18;;;;;;;32.10;19.25;;;;;;;1.19;100.00;148967.00;10672272;27;20106;-73
2024/03/06 06:29:20;;;;;;;27.10;17.50;;;;;;;1.22;100.00;148974.72;10653927;27;20543;-72
2024/03/06 06:34:22;;;;;;;27.73;18.45;;;;;;;1.70;100.00;149095.22;10655050;27;20039;-73
2024/03/06 06:39:24;;;;;;;32.60;18.15;;;;;;;1.99;100.00;149168.25;10672233;27;20038;-72
2024/03/06 06:44:26;;;;;;;30.85;17.38;;;;;;;1.86;100.00;149134.94;10671774;27;20093;-72
2024/03/06 06:49:28;;;;;;;26.67;17.38;;;;;;;2.17;100.00;149213.16;10670792;27;20035;-73
2024/03/06 06:54:30;;;;;;;26.38;18.55;;;;;;;2.67;100.00;149338.91;10671372;27;20098;-73
2024/03/06 06:59:31;;;;;;;26.95;17.95;;;;;;;2.83;100.00;149379.94;10669485;27;20063;-73
2024/03/06 07:04:34;;;;;;;25.73;18.35;;;;;;;3.24;100.00;149483.91;10670237;27;20068;-74
2024/03/06 07:09:35;;;;;;;31.80;18.73;;;;;;;2.75;100.00;149360.72;10635475;27;20054;-73
2024/03/06 07:14:37;;;;;;;30.83;18.85;;;;;;;2.52;100.00;149302.97;10669936;27;20042;-73
2024/03/06 07:19:39;;;;;;;30.80;18.92;;;;;;;2.63;100.00;149328.63;10651739;27;20111;-72
2024/03/06 07:24:41;;;;;;;32.70;19.67;;;;;;;2.35;100.00;149258.09;10669721;27;20042;-73
2024/03/06 07:29:43;;;;;;;33.08;20.33;;;;;;;2.53;100.00;149304.25;10651378;27;20135;-73
2024/03/06 07:34:45;;;;;;;41.45;21.40;;;;;;;2.76;100.00;149363.25;10668732;27;20081;-73
2024/03/06 07:39:46;;;;;;;33.03;20.17;;;;;;;2.82;100.00;149376.09;10669405;27;20046;-73
2024/03/06 07:44:52;;;;;;;44.85;23.67;;;;;;;2.93;100.00;149405.63;10669196;27;20054;-72
2024/03/06 07:49:54;;;;;;;33.30;20.13;;;;;;;3.06;100.00;149437.72;10651207;27;20066;-72
2024/03/06 07:54:55;;;;;;;34.60;21.33;;;;;;;3.04;100.00;149433.84;10668683;27;20035;-74
2024/03/06 07:59:57;;;;;;;28.02;19.88;;;;;;;3.37;100.00;149514.75;10670601;27;20062;-72
2024/03/06 08:04:59;;;;;;;39.38;22.95;;;;;;;3.42;100.00;149527.56;10669316;27;20398;-72
2024/03/06 08:10:01;;;;;;;40.80;21.50;;;;;;;3.47;100.00;149541.69;10668223;27;20042;-73
2024/03/06 08:15:03;;;;;;;39.58;22.38;;;;;;;3.82;100.00;149627.72;10668543;27;20047;-73
2024/03/06 08:20:07;;;;;;;31.33;22.08;;;;;;;3.98;100.00;149670.06;10667901;27;20039;-73
2024/03/06 08:25:12;;;;;;;45.20;22.77;;;;;;;3.98;100.00;149670.06;10666985;27;20156;-72
2024/03/06 08:30:14;;;;;;;40.05;22.48;;;;;;;4.34;99.75;149758.72;10668219;27;20047;-73
2024/03/06 08:35:18;;;;;;;45.47;24.33;;;;;;;4.40;99.59;149775.44;10669063;27;20077;-73
2024/03/06 08:40:23;;;;;;;42.17;23.42;;;;;;;4.42;100.00;149780.56;10668525;27;20428;-73
2024/03/06 08:45:25;;;;;;;37.67;21.75;;;;;;;4.86;96.98;149889.81;10667500;27;20039;-73
2024/03/06 08:50:27;;;;;;;47.50;22.88;;;;;;;4.62;98.69;149830.69;10649098;27;20039;-73
2024/03/06 08:55:29;;;;;;;38.47;22.50;;;;;;;4.91;97.28;149902.66;10667816;27;20122;-73
2024/03/06 09:00:30;;;;;;;33.28;20.48;;;;;;;5.13;96.05;149957.94;10667336;27;20043;-73
2024/03/06 09:05:32;;;;;;;34.47;21.70;;;;;;;5.39;93.78;150024.78;10637543;27;20035;-73
2024/03/06 09:10:34;;;;;;;42.35;22.25;;;;;;;5.36;94.38;150017.13;10624564;28;20448;-73
2024/03/06 09:15:36;;;;;;;40.13;23.15;;;;;;;5.49;94.17;150050.56;10605971;28;20100;-73
2024/03/06 09:20:37;;;;;;;42.08;22.63;;;;;;;5.65;89.13;150089.13;10624191;28;20139;-73
2024/03/06 09:25:40;;;;;;;32.80;21.27;;;;;;;5.83;89.66;150135.41;10640344;27;20037;-72
2024/03/06 09:30:42;;;;;;;31.27;20.75;;;;;;;6.06;89.68;150194.66;10618982;27;20130;-74
2024/03/06 09:35:45;;;;;;;35.88;21.08;;;;;;;5.94;89.03;150163.78;10663050;27;20066;-73
2024/03/06 09:40:48;;;;;;;30.67;20.65;;;;;;;5.91;91.54;150154.72;10655900;27;20039;-73
2024/03/06 09:45:50;;;;;;;38.83;21.13;;;;;;;6.35;89.66;150266.72;10654793;27;20117;-72
2024/03/06 09:50:57;;;;;;;33.92;20.60;;;;;;;6.42;88.10;150283.41;10674671;27;20447;-72
2024/03/06 09:56:00;;;;;;;29.17;20.40;;;;;;;6.22;88.77;150233.25;10675370;27;20030;-72
2024/03/06 10:01:03;;;;;;;29.25;20.83;;;;;;;5.90;93.34;150153.44;10645767;27;20047;-72
2024/03/06 10:06:06;;;;;;;31.85;21.30;;;;;;;5.92;94.57;150157.34;10613335;27;20039;-72
2024/03/06 10:11:12;;;;;;;31.63;20.10;;;;;;;6.27;92.32;150246.13;10631478;27;20043;-72
2024/03/06 10:16:14;;;;;;;25.75;19.10;;;;;;;6.59;88.98;150327.19;10632129;27;20075;-73
2024/03/06 10:21:17;;;;;;;35.53;22.05;;;;;;;6.53;88.55;150313.03;10610067;27;20103;-73
2024/03/06 10:26:20;;;;;;;32.95;21.10;;;;;;;6.67;87.28;150346.50;10587822;27;20039;-73
2024/03/06 10:31:28;;;;;;;31.70;20.95;;;;;;;6.98;86.79;150426.31;10607500;27;20065;-73
2024/03/06 10:36:34;;;;;;;27.83;20.33;;;;;;;7.14;85.54;150464.97;10669355;27;20064;-72
2024/03/06 10:41:37;;;;;;;35.58;23.58;;;;;;;7.39;83.93;150529.34;10636620;27;20084;-72
2024/03/06 10:46:43;;;;;;;33.42;22.13;;;;;;;7.75;83.08;150619.53;10611663;27;20095;-72
2024/03/06 10:51:47;;;;;;;26.15;20.45;;;;;;;7.91;82.29;150659.47;10629802;27;20080;-72
2024/03/06 10:56:49;;;;;;;31.83;21.08;;;;;;;8.19;81.34;150730.31;10628816;27;20054;-72
2024/03/06 11:01:51;;;;;;;28.58;20.80;;;;;;;8.61;80.45;150836.09;10628841;27;20506;-72
2024/03/06 11:06:53;;;;;;;24.95;19.58;;;;;;;8.90;78.08;150910.88;10628812;27;20049;-72
2024/03/06 11:11:56;;;;;;;22.92;20.45;;;;;;;9.08;75.94;150956.03;10628045;27;20487;-72
2024/03/06 11:17:03;;;;;;;27.40;20.95;;;;;;;8.50;75.02;150810.31;10627628;27;20070;-72
2024/03/06 11:22:06;;;;;;;28.25;20.70;;;;;;;8.00;73.33;150683.94;10627235;27;20047;-71
2024/03/06 11:27:07;;;;;;;23.38;18.63;;;;;;;7.39;75.64;150529.34;10628647;27;20445;-71
2024/03/06 11:32:11;;;;;;;28.55;18.88;;;;;;;7.57;75.50;150575.75;10631543;27;20080;-71
2024/03/06 11:37:20;;;;;;;28.05;18.83;;;;;;;7.45;75.03;150543.53;10672505;27;20046;-71
2024/03/06 11:42:35;;;;;;;27.58;20.10;;;;;;;7.74;73.36;150616.94;10671701;27;20126;-70
2024/03/06 11:47:56;;;;;;;25.73;19.25;;;;;;;7.80;72.40;150632.44;10627444;27;20077;-71
2024/03/06 11:52:58;;;;;;;25.92;18.65;;;;;;;7.79;73.04;150631.13;10620392;27;20119;-71
2024/03/06 11:58:00;;;;;;;24.73;19.10;;;;;;;7.74;70.85;150616.94;10627590;27;20047;-71
2024/03/06 12:03:04;;;;;;;32.22;20.95;;;;;;;7.47;73.16;150548.66;10609251;27;20035;-70
2024/03/06 12:08:07;;;;;;;26.52;19.33;;;;;;;7.28;73.88;150501.03;10626190;27;20043;-71
2024/03/06 12:13:09;;;;;;;30.13;18.77;;;;;;;6.86;75.80;150394.13;10608124;27;20038;-71
2024/03/06 12:18:11;;;;;;;33.80;20.95;;;;;;;7.24;75.71;150492.00;10625733;27;20074;-71
2024/03/06 12:23:25;;;;;;;27.40;19.63;;;;;;;7.41;73.81;150534.50;10625678;27;20066;-71
2024/03/06 12:28:27;;;;;;;30.75;19.60;;;;;;;7.12;72.19;150459.78;10625417;27;20039;-70
2024/03/06 12:33:29;;;;;;;25.75;18.50;;;;;;;7.30;72.85;150507.47;10624251;28;20131;-72
2024/03/06 12:38:31;;;;;;;29.50;19.60;;;;;;;7.37;72.29;150524.19;10624972;28;20049;-71
2024/03/06 12:43:34;;;;;;;22.73;17.40;;;;;;;7.36;72.71;150521.63;10613667;28;20521;-71
2024/03/06 12:48:36;;;;;;;21.42;14.07;;;;;;;7.31;66.19;150510.03;10606718;28;20042;-71
2024/03/06 12:53:39;;;;;;;16.02;14.23;;;;;;;7.23;66.57;150488.16;10624550;28;20035;-70
2024/03/06 12:58:41;;;;;;;20.23;15.50;;;;;;;7.75;67.20;150619.53;10631004;27;20039;-70
2024/03/06 13:03:43;;;;;;;26.60;17.13;;;;;;;7.87;69.20;150650.44;10648380;27;20035;-71
2024/03/06 13:08:45;;;;;;;24.83;16.95;;;;;;;7.66;69.55;150596.31;10632485;27;20043;-71
2024/03/06 13:13:47;;;;;;;19.08;16.42;;;;;;;7.63;69.69;150589.91;10632951;27;20054;-71
2024/03/06 13:18:53;;;;;;;20.27;16.40;;;;;;;7.47;70.27;150549.94;10632287;27;20047;-71
2024/03/06 13:23:55;;;;;;;28.58;19.23;;;;;;;7.34;72.50;150517.75;10649591;27;20380;-70
2024/03/06 13:28:57;;;;;;;18.38;16.00;;;;;;;7.17;71.36;150472.66;10632372;27;20388;-71
2024/03/06 13:34:03;;;;;;;20.27;16.02;;;;;;;7.06;72.89;150446.94;10631451;27;20078;-71
2024/03/06 13:39:05;;;;;;;18.57;16.60;;;;;;;7.00;72.05;150431.50;10632008;27;20384;-71
2024/03/06 13:44:07;;;;;;;24.65;16.23;;;;;;;6.91;71.76;150407.03;10630969;27;20084;-71
2024/03/06 13:49:34;;;;;;;14.77;13.27;;;;;;;7.17;68.40;150474.00;10630407;27;20039;-71
2024/03/06 13:54:40;;;;;;;10.27;8.87;;;;;;;7.35;66.28;150519.06;10630814;27;20061;-71
2024/03/06 13:59:42;;;;;;;15.77;13.40;;;;;;;7.65;66.36;150593.75;10630531;27;20074;-71
2024/03/06 14:04:44;;;;;;;14.60;11.98;;;;;;;7.53;65.73;150565.44;10630391;27;20070;-71
2024/03/06 14:09:46;;;;;;;14.15;12.70;;;;;;;7.61;64.62;150583.44;10628928;27;20448;-70
2024/03/06 14:14:47;;;;;;;13.90;11.73;;;;;;;7.26;62.39;150495.84;10629565;27;20548;-70
2024/03/06 14:19:49;;;;;;;13.30;11.60;;;;;;;7.39;64.19;150528.03;10629237;27;20043;-70
2024/03/06 14:24:51;;;;;;;16.83;12.20;;;;;;;7.19;64.10;150479.13;10671795;27;20074;-70
2024/03/06 14:29:54;;;;;;;12.93;11.63;;;;;;;7.14;65.23;150464.97;10653323;27;20047;-70
2024/03/06 14:34:56;;;;;;;15.00;13.40;;;;;;;7.20;65.67;150481.69;10672277;27;20084;-71
2024/03/06 14:39:57;;;;;;;16.00;11.50;;;;;;;7.24;64.79;150490.72;10671034;27;20066;-71
2024/03/06 14:45:04;;;;;;;13.93;12.52;;;;;;;7.15;64.30;150467.53;10671082;27;20047;-71
2024/03/06 14:50:07;;;;;;;13.98;12.52;;;;;;;7.20;64.19;150481.69;10671047;27;20043;-71
2024/03/06 14:55:09;;;;;;;14.07;12.25;;;;;;;7.12;63.97;150461.06;10670833;27;20041;-71
2024/03/06 15:00:11;;;;;;;13.80;12.55;;;;;;;6.88;66.71;150399.31;10670820;27;20042;-71
2024/03/06 15:05:13;;;;;;;14.07;11.52;;;;;;;6.80;66.38;150379.97;10670244;27;20046;-70
2024/03/06 15:10:15;;;;;;;12.25;10.85;;;;;;;6.76;67.60;150370.94;10671592;27;20502;-71
2024/03/06 15:15:17;;;;;;;12.63;11.35;;;;;;;6.69;67.03;150352.97;10670109;27;20118;-71
2024/03/06 15:20:19;;;;;;;11.57;10.48;;;;;;;6.79;64.87;150377.41;10669543;27;20043;-71
2024/03/06 15:25:21;;;;;;;13.57;10.18;;;;;;;6.66;65.18;150343.94;10669681;27;20041;-72
2024/03/06 15:30:23;;;;;;;11.43;10.27;;;;;;;6.53;65.66;150311.75;10669882;27;20118;-70
2024/03/06 15:35:24;;;;;;;10.23;9.23;;;;;;;6.43;63.99;150286.03;10669100;27;20070;-71
2024/03/06 15:40:26;;;;;;;8.18;7.30;;;;;;;6.35;63.05;150266.72;10669284;27;20133;-70
2024/03/06 15:45:28;;;;;;;10.10;9.00;;;;;;;6.36;64.89;150269.28;10650558;27;20104;-71
2024/03/06 15:50:30;;;;;;;9.15;8.23;;;;;;;6.13;66.38;150211.38;10669004;27;20122;-70
2024/03/06 15:55:32;;;;;;;12.70;8.27;;;;;;;6.07;67.64;150195.94;10649057;27;20035;-70
2024/03/06 16:00:34;;;;;;;11.60;8.05;;;;;;;6.02;67.83;150184.38;10667226;27;20095;-71
2024/03/06 16:05:36;;;;;;;10.85;8.25;;;;;;;6.00;68.57;150179.22;10633933;27;20061;-70
2024/03/06 16:10:38;;;;;;;9.70;8.43;;;;;;;5.73;71.15;150110.97;10669354;27;20387;-71
2024/03/06 16:15:39;;;;;;;9.23;6.68;;;;;;;5.78;70.21;150122.56;10670075;27;20410;-71
2024/03/06 16:20:41;;;;;;;7.68;6.90;;;;;;;5.75;68.58;150114.81;10669697;27;20035;-71
2024/03/06 16:25:44;;;;;;;8.07;5.70;;;;;;;5.69;68.06;150099.41;10668047;27;20039;-71
2024/03/06 16:30:46;;;;;;;6.97;6.15;;;;;;;5.59;68.88;150073.69;10667469;27;20475;-71
2024/03/06 16:35:48;;;;;;;6.00;5.03;;;;;;;5.36;69.40;150017.13;10667149;27;20114;-70
2024/03/06 16:40:49;;;;;;;6.50;5.63;;;;;;;5.15;71.09;149964.38;10667544;27;20039;-72
2024/03/06 16:45:51;;;;;;;7.32;5.80;;;;;;;5.14;71.32;149960.53;10668110;27;20046;-71
2024/03/06 16:50:53;;;;;;;6.75;5.45;;;;;;;4.92;72.80;149906.53;10668817;27;20126;-74
2024/03/06 16:55:55;;;;;;;10.75;6.40;;;;;;;5.00;73.58;149927.13;10651172;27;20109;-74
2024/03/06 17:00:57;;;;;;;6.78;5.60;;;;;;;5.36;71.57;150015.78;10668842;27;20053;-74
2024/03/06 17:05:59;;;;;;;6.78;5.93;;;;;;;5.36;71.08;150017.13;10667295;27;20448;-73
2024/03/06 17:11:01;;;;;;;6.78;6.07;;;;;;;5.28;72.36;149996.53;10649242;27;20099;-74
2024/03/06 17:16:04;;;;;;;7.88;7.07;;;;;;;5.25;74.14;149988.81;10667876;27;20035;-75
2024/03/06 17:21:08;;;;;;;8.20;7.40;;;;;;;5.18;75.27;149970.78;10668299;27;20046;-74
2024/03/06 17:26:12;;;;;;;8.40;7.60;;;;;;;5.04;76.80;149936.06;10667543;27;20089;-74
2024/03/06 17:31:13;;;;;;;9.20;8.40;;;;;;;5.29;76.31;149999.09;10649676;27;20065;-75
2024/03/06 17:36:15;;;;;;;9.13;8.23;;;;;;;5.42;76.41;150032.53;10668713;27;20035;-74
2024/03/06 17:41:17;;;;;;;11.73;8.68;;;;;;;5.37;76.49;150018.41;10669191;27;20115;-74
2024/03/06 17:46:19;;;;;;;8.85;7.93;;;;;;;5.19;76.33;149973.41;10674458;27;20058;-74
2024/03/06 17:51:28;;;;;;;8.38;7.57;;;;;;;5.04;76.81;149936.06;10656108;27;20047;-74
2024/03/06 17:56:30;;;;;;;8.05;7.35;;;;;;;4.91;77.06;149902.66;10674827;27;20039;-74
2024/03/06 18:01:32;;;;;;;8.98;8.10;;;;;;;5.03;76.65;149933.53;10674969;27;20047;-74
2024/03/06 18:06:34;;;;;;;8.82;7.38;;;;;;;5.01;76.57;149928.41;10675313;27;20038;-74
2024/03/06 18:11:36;;;;;;;8.48;7.40;;;;;;;4.98;76.04;149921.94;10669998;27;20035;-74
2024/03/06 18:16:38;;;;;;;8.00;7.25;;;;;;;4.98;75.93;149921.94;10644087;27;20072;-73
2024/03/06 18:21:45;;;;;;;6.95;6.25;;;;;;;4.93;74.29;149909.09;10637002;27;20051;-73
2024/03/06 18:26:48;;;;;;;8.07;7.15;;;;;;;4.67;74.84;149843.53;10654424;27;20095;-74
2024/03/06 18:31:50;;;;;;;8.05;6.75;;;;;;;4.62;75.49;149830.69;10660109;27;20434;-74
2024/03/06 18:36:52;;;;;;;7.47;6.60;;;;;;;4.65;75.70;149837.09;10674521;27;20034;-75
2024/03/06 18:41:54;;;;;;;8.77;7.70;;;;;;;4.59;75.21;149822.97;10644712;27;20061;-74
2024/03/06 18:47:09;;;;;;;9.63;7.05;;;;;;;4.43;75.64;149783.16;10643124;27;20051;-75
2024/03/06 18:52:11;;;;;;;7.50;6.68;;;;;;;4.38;76.24;149770.28;10631375;27;20119;-74
2024/03/06 18:57:12;;;;;;;8.38;7.32;;;;;;;4.25;76.64;149738.19;10629594;27;20392;-74
2024/03/06 19:02:14;;;;;;;8.05;7.07;;;;;;;4.13;77.60;149706.06;10612078;27;20111;-74
2024/03/06 19:07:18;;;;;;;7.97;7.18;;;;;;;3.93;78.37;149657.22;10630181;27;20088;-75
2024/03/06 19:12:20;;;;;;;8.85;8.05;;;;;;;4.01;78.45;149676.50;10631609;27;20079;-73
2024/03/06 19:17:22;;;;;;;9.43;8.52;;;;;;;3.82;79.31;149629.00;10612090;27;20403;-74
2024/03/06 19:22:25;;;;;;;9.93;8.93;;;;;;;3.78;79.61;149618.72;10629659;27;20039;-74
2024/03/06 19:27:27;;;;;;;8.70;7.80;;;;;;;3.64;80.82;149584.06;10614442;27;20065;-74
2024/03/06 19:32:29;;;;;;;9.85;8.65;;;;;;;3.83;82.00;149630.28;10615080;27;20047;-75
2024/03/06 19:37:47;;;;;;;10.75;9.65;;;;;;;3.61;82.25;149576.34;10617460;27;20414;-75
2024/03/06 19:42:49;;;;;;;11.20;10.10;;;;;;;3.63;82.38;149580.19;10614766;27;20089;-75
2024/03/06 19:47:51;;;;;;;12.10;10.20;;;;;;;3.43;82.92;149530.13;10633164;27;20035;-74
2024/03/06 19:52:53;;;;;;;13.07;10.95;;;;;;;3.28;84.92;149494.19;10612669;27;20051;-73
2024/03/06 19:57:57;;;;;;;10.50;9.40;;;;;;;3.40;83.87;149523.69;10624720;27;20043;-74
2024/03/06 20:02:59;;;;;;;12.23;10.38;;;;;;;3.50;83.41;149548.13;10674901;27;20065;-74
2024/03/06 20:08:02;;;;;;;13.45;11.57;;;;;;;3.45;83.29;149535.25;10656761;27;20088;-75
2024/03/06 20:13:04;;;;;;;12.02;10.80;;;;;;;3.40;83.61;149522.41;10655086;27;20057;-75
2024/03/06 20:18:06;;;;;;;15.95;12.45;;;;;;;3.59;83.47;149571.22;10673368;27;20039;-74
2024/03/06 20:23:12;;;;;;;11.88;10.68;;;;;;;3.39;84.68;149521.13;10671973;27;20499;-76
2024/03/06 20:28:13;;;;;;;12.02;10.77;;;;;;;3.32;86.59;149503.19;10671907;27;20049;-75
2024/03/06 20:33:15;;;;;;;14.23;10.60;;;;;;;3.52;86.44;149553.22;10674070;27;20077;-75
2024/03/06 20:38:17;;;;;;;11.60;10.25;;;;;;;3.40;87.56;149522.41;10653675;27;20521;-74
2024/03/06 20:43:21;;;;;;;11.27;10.18;;;;;;;3.45;87.17;149535.25;10670568;27;20035;-75
2024/03/06 20:48:23;;;;;;;12.10;10.90;;;;;;;3.45;87.32;149536.56;10670862;27;20049;-74
2024/03/06 20:53:25;;;;;;;12.15;10.57;;;;;;;3.43;88.65;149530.13;10670713;27;20110;-74
2024/03/06 20:58:27;;;;;;;39.38;19.42;;;;;;;3.63;88.18;149580.19;10669966;27;20050;-75
2024/03/06 21:03:29;;;;;;;19.00;14.05;;;;;;;3.79;85.85;149621.28;10670155;27;20057;-75
2024/03/06 21:08:30;;;;;;;13.48;12.07;;;;;;;3.78;85.65;149618.72;10669411;27;20471;-74
2024/03/06 21:13:33;;;;;;;11.85;10.60;;;;;;;3.83;85.62;149630.28;10650570;27;20039;-75
2024/03/06 21:18:35;;;;;;;12.45;10.82;;;;;;;3.63;87.74;149580.19;10652099;27;20137;-75
2024/03/06 21:23:36;;;;;;;11.20;10.10;;;;;;;3.83;87.06;149631.56;10677665;27;20035;-74
2024/03/06 21:28:38;;;;;;;13.77;10.43;;;;;;;4.06;86.28;149689.34;10678306;27;20070;-75
2024/03/06 21:33:40;;;;;;;11.95;10.77;;;;;;;3.76;87.80;149614.88;10679149;27;20042;-75
2024/03/06 21:38:42;;;;;;;12.23;10.00;;;;;;;3.69;89.68;149595.63;10680480;27;20038;-75
2024/03/06 21:43:44;;;;;;;12.00;10.73;;;;;;;4.04;87.38;149684.22;10662491;27;20111;-75
2024/03/06 21:48:46;;;;;;;12.88;10.68;;;;;;;3.66;90.38;149589.19;10662065;27;20050;-76
2024/03/06 21:53:48;;;;;;;12.27;10.90;;;;;;;3.54;92.04;149558.34;10679228;27;20047;-75
2024/03/06 21:58:50;;;;;;;11.27;10.10;;;;;;;3.54;92.82;149559.66;10679391;27;20042;-74
2024/03/06 22:03:52;;;;;;;11.93;10.73;;;;;;;3.60;92.56;149573.78;10674555;27;20034;-73
2024/03/06 22:08:53;;;;;;;12.32;11.07;;;;;;;3.57;93.20;149566.06;10674904;27;20465;-75
2024/03/06 22:13:55;;;;;;;12.10;10.80;;;;;;;3.62;92.46;149578.91;10673900;27;20035;-75
2024/03/06 22:18:57;;;;;;;13.75;10.30;;;;;;;3.71;91.77;149602.00;10673466;27;20121;-73
2024/03/06 22:23:59;;;;;;;13.93;10.63;;;;;;;3.85;91.73;149635.41;10672628;27;20038;-73
2024/03/06 22:29:03;;;;;;;13.10;11.48;;;;;;;3.86;91.41;149639.28;10672195;27;20044;-74
2024/03/06 22:34:06;;;;;;;12.82;11.15;;;;;;;3.77;92.78;149616.16;10671905;27;20150;-73
2024/03/06 22:39:08;;;;;;;13.32;11.93;;;;;;;3.89;91.97;149645.69;10671707;27;20240;-73
2024/03/06 22:44:10;;;;;;;12.98;11.68;;;;;;;4.00;91.28;149675.22;10653542;27;20039;-74
2024/03/06 22:49:11;;;;;;;12.90;11.32;;;;;;;3.89;92.03;149645.69;10671729;27;20056;-73
2024/03/06 22:54:14;;;;;;;13.50;10.73;;;;;;;3.86;92.62;149639.28;10670683;27;20043;-73
2024/03/06 22:59:16;;;;;;;13.13;11.13;;;;;;;3.75;93.16;149612.28;10652087;27;20062;-73